Time;durP1;ratioP1;P1;durP2;ratioP2;P2;SDS_P1;SDS_P2;PMS_P1;PMS_P2;Temp;Humidity;BMP_temperature;BMP_pressure;BME280_temperature;BME280_humidity;BME280_pressure;Samples;Min_cycle;Max_cycle;Signal;HPM_P1;HPM_P2
2022/06/10 00:04:01;;;;;;;;;;;12.90;99.90;;;;;;5073161;28;19920;-71
2022/06/10 00:06:27;;;;;;;;;;;13.00;99.90;;;;;;5072718;28;19924;-73
2022/06/10 00:08:54;;;;;;;;;;;13.10;99.90;;;;;;5072846;28;19978;-72
2022/06/10 00:11:21;;;;;;;;;;;13.10;99.90;;;;;;5073018;28;20344;-71
2022/06/10 00:13:50;;;;;;;;;;;13.10;99.90;;;;;;5073009;28;19979;-70
2022/06/10 00:16:18;;;;;;;;;;;13.00;99.90;;;;;;5072785;28;20023;-70
2022/06/10 00:18:45;;;;;;;;;;;13.00;99.90;;;;;;5072865;28;19924;-71
2022/06/10 00:21:13;;;;;;;;;;;13.00;99.90;;;;;;5072784;28;19928;-71
2022/06/10 00:23:40;;;;;;;;;;;12.90;99.90;;;;;;5072894;28;19924;-71
2022/06/10 00:26:07;;;;;;;;;;;12.90;99.90;;;;;;5072438;28;20308;-71
2022/06/10 00:28:34;;;;;;;;;;;12.90;99.90;;;;;;5072521;28;20273;-71
2022/06/10 00:31:03;;;;;;;;;;;12.80;99.90;;;;;;5072604;28;19925;-71
2022/06/10 00:33:33;;;;;;;;;;;12.70;99.90;;;;;;5072706;28;19925;-71
2022/06/10 00:36:00;;;;;;;;;;;12.70;99.90;;;;;;5072774;28;19931;-70
2022/06/10 00:38:30;;;;;;;;;;;12.80;99.90;;;;;;5072516;28;19925;-71
2022/06/10 00:40:57;;;;;;;;;;;12.80;99.90;;;;;;5072410;28;19960;-71
2022/06/10 00:43:25;;;;;;;;;;;12.70;99.90;;;;;;5072564;28;19978;-70
2022/06/10 00:45:58;;;;;;;;;;;12.60;99.90;;;;;;5072546;28;19931;-71
2022/06/10 00:48:32;;;;;;;;;;;12.60;99.90;;;;;;5072573;28;19925;-71
2022/06/10 00:51:00;;;;;;;;;;;12.50;99.90;;;;;;5072257;28;19994;-71
2022/06/10 00:53:31;;;;;;;;;;;12.50;99.90;;;;;;5072080;28;19925;-71
2022/06/10 00:55:59;;;;;;;;;;;12.60;99.90;;;;;;5071840;28;19970;-71
2022/06/10 00:58:32;;;;;;;;;;;12.60;99.90;;;;;;5072633;28;19974;-71
2022/06/10 01:01:02;;;;;;;;;;;12.60;99.90;;;;;;5072250;28;19924;-71
2022/06/10 01:03:30;;;;;;;;;;;12.60;99.90;;;;;;5072508;28;19925;-70
2022/06/10 01:05:57;;;;;;;;;;;12.40;99.90;;;;;;5071790;28;19978;-71
2022/06/10 01:08:25;;;;;;;;;;;12.40;99.90;;;;;;5072193;28;19978;-71
2022/06/10 01:10:56;;;;;;;;;;;12.30;99.90;;;;;;5072127;28;19928;-71
2022/06/10 01:13:28;;;;;;;;;;;12.30;99.90;;;;;;5072128;28;19925;-71
2022/06/10 01:16:02;;;;;;;;;;;12.20;99.90;;;;;;5071932;28;19971;-70
2022/06/10 01:18:36;;;;;;;;;;;12.20;99.90;;;;;;5072007;28;19931;-71
2022/06/10 01:21:08;;;;;;;;;;;12.30;99.90;;;;;;5071997;28;19979;-71
2022/06/10 01:23:47;;;;;;;;;;;12.20;99.90;;;;;;5072769;28;19924;-74
2022/06/10 01:27:47;;;;;;;;;;;12.10;99.90;;;;;;5071921;28;19971;-71
2022/06/10 01:29:39;;;;;;;;;;;12.30;99.90;;;;;;5071951;28;19924;-71
2022/06/10 01:32:11;;;;;;;;;;;12.40;99.90;;;;;;5072024;28;20419;-71
2022/06/10 01:34:42;;;;;;;;;;;12.20;99.90;;;;;;5072108;28;20295;-71
2022/06/10 01:37:11;;;;;;;;;;;12.10;99.90;;;;;;5072258;28;19978;-70
2022/06/10 01:39:44;;;;;;;;;;;12.10;99.90;;;;;;5072038;28;19924;-71
2022/06/10 01:42:13;;;;;;;;;;;12.10;99.90;;;;;;5072261;28;19932;-71
2022/06/10 01:44:50;;;;;;;;;;;12.20;99.90;;;;;;5071914;28;19925;-71
2022/06/10 01:47:20;;;;;;;;;;;12.10;99.90;;;;;;5071818;28;19944;-70
2022/06/10 01:49:51;;;;;;;;;;;12.10;99.90;;;;;;5071817;28;19990;-70
2022/06/10 01:52:20;;;;;;;;;;;12.10;99.90;;;;;;5071789;28;20384;-71
2022/06/10 01:54:50;;;;;;;;;;;12.20;99.90;;;;;;5071433;28;19924;-71
2022/06/10 01:57:20;;;;;;;;;;;12.20;99.90;;;;;;5071692;28;20015;-71
2022/06/10 01:59:49;;;;;;;;;;;12.10;99.90;;;;;;5071675;28;19924;-70
2022/06/10 02:02:21;;;;;;;;;;;12.10;99.90;;;;;;5071539;28;19980;-71
2022/06/10 02:04:51;;;;;;;;;;;12.20;99.90;;;;;;5071608;28;19929;-70
2022/06/10 02:07:21;;;;;;;;;;;12.10;99.90;;;;;;5073560;28;20379;-71
2022/06/10 02:09:50;;;;;;;;;;;12.00;99.90;;;;;;5075368;28;19931;-71
2022/06/10 02:12:19;;;;;;;;;;;11.90;99.90;;;;;;5075409;28;19924;-71
2022/06/10 02:14:50;;;;;;;;;;;11.80;99.90;;;;;;5074987;28;19978;-71
2022/06/10 02:17:17;;;;;;;;;;;11.70;99.90;;;;;;5075328;28;19972;-71
2022/06/10 02:19:47;;;;;;;;;;;11.70;99.90;;;;;;5075119;28;20423;-70
2022/06/10 02:22:17;;;;;;;;;;;11.70;99.90;;;;;;5075513;28;20381;-70
2022/06/10 02:24:46;;;;;;;;;;;11.70;99.90;;;;;;5075308;28;20455;-70
2022/06/10 02:27:15;;;;;;;;;;;11.70;99.90;;;;;;5075526;28;19928;-70
2022/06/10 02:29:53;;;;;;;;;;;11.70;99.90;;;;;;5075401;28;20281;-70
2022/06/10 02:32:20;;;;;;;;;;;11.80;99.90;;;;;;5075319;28;19931;-75
2022/06/10 02:34:46;;;;;;;;;;;11.70;99.90;;;;;;5075160;28;19932;-71
2022/06/10 02:37:21;;;;;;;;;;;11.70;99.90;;;;;;5075377;28;19978;-72
2022/06/10 02:39:52;;;;;;;;;;;11.70;99.90;;;;;;5074718;28;19940;-72
2022/06/10 02:42:21;;;;;;;;;;;11.60;99.90;;;;;;5074992;28;19928;-72
2022/06/10 02:44:51;;;;;;;;;;;11.60;99.90;;;;;;5074731;28;19998;-72
2022/06/10 02:47:25;;;;;;;;;;;11.50;99.90;;;;;;5075081;28;20395;-72
2022/06/10 02:49:53;;;;;;;;;;;11.50;99.90;;;;;;5074674;28;20384;-72
2022/06/10 02:52:22;;;;;;;;;;;11.40;99.90;;;;;;5075211;28;19930;-72
2022/06/10 02:54:50;;;;;;;;;;;11.30;99.90;;;;;;5074844;28;19928;-72
2022/06/10 02:57:21;;;;;;;;;;;11.30;99.90;;;;;;5074988;28;19971;-72
2022/06/10 03:02:46;;;;;;;;;;;11.40;99.90;;;;;;5074633;28;19927;-72
2022/06/10 03:05:26;;;;;;;;;;;11.40;99.90;;;;;;5074617;28;19966;-72
2022/06/10 03:08:03;;;;;;;;;;;11.40;99.90;;;;;;5074547;28;20384;-72
2022/06/10 03:10:33;;;;;;;;;;;11.30;99.90;;;;;;5074266;28;19928;-73
2022/06/10 03:13:09;;;;;;;;;;;11.30;99.90;;;;;;5074468;28;19931;-72
2022/06/10 03:16:00;;;;;;;;;;;11.30;99.90;;;;;;5074355;28;19924;-73
2022/06/10 03:18:31;;;;;;;;;;;11.30;99.90;;;;;;5074767;28;19925;-72
2022/06/10 03:21:01;;;;;;;;;;;11.30;99.90;;;;;;5074490;28;20011;-72
2022/06/10 03:23:35;;;;;;;;;;;11.30;99.90;;;;;;5073998;28;20293;-72
2022/06/10 03:26:05;;;;;;;;;;;11.30;99.90;;;;;;5073950;28;20015;-72
2022/06/10 03:28:35;;;;;;;;;;;11.20;99.90;;;;;;5073977;28;19970;-72
2022/06/10 03:31:05;;;;;;;;;;;11.10;99.90;;;;;;5073832;28;19931;-72
2022/06/10 03:33:34;;;;;;;;;;;11.10;99.90;;;;;;5074030;28;19932;-72
2022/06/10 03:36:02;;;;;;;;;;;11.20;99.90;;;;;;5073851;28;19939;-72
2022/06/10 03:38:31;;;;;;;;;;;11.30;99.90;;;;;;5073843;28;19970;-72
2022/06/10 03:40:59;;;;;;;;;;;11.30;99.90;;;;;;5073758;28;20114;-72
2022/06/10 03:43:26;;;;;;;;;;;11.40;99.90;;;;;;5073700;28;19933;-72
2022/06/10 03:45:55;;;;;;;;;;;11.30;99.90;;;;;;5073746;28;19924;-72
2022/06/10 03:48:29;;;;;;;;;;;11.20;99.90;;;;;;5073912;28;19928;-72
2022/06/10 03:50:56;;;;;;;;;;;11.20;99.90;;;;;;5073884;28;19925;-72
2022/06/10 03:53:24;;;;;;;;;;;11.20;99.90;;;;;;5073613;28;19924;-72
2022/06/10 03:55:52;;;;;;;;;;;11.30;99.90;;;;;;5073460;28;20384;-72
2022/06/10 03:58:19;;;;;;;;;;;11.40;99.90;;;;;;5073392;28;19924;-73
2022/06/10 04:00:46;;;;;;;;;;;11.40;99.90;;;;;;5073367;28;20360;-72
2022/06/10 04:03:13;;;;;;;;;;;11.40;99.90;;;;;;5073132;28;20348;-72
2022/06/10 04:05:40;;;;;;;;;;;11.40;99.90;;;;;;5072976;28;19924;-70
2022/06/10 04:08:08;;;;;;;;;;;11.40;99.90;;;;;;5073658;28;20389;-72
2022/06/10 04:10:35;;;;;;;;;;;11.40;99.90;;;;;;5073282;28;20278;-72
2022/06/10 04:13:03;;;;;;;;;;;11.40;99.90;;;;;;5073368;28;19932;-72
2022/06/10 04:15:32;;;;;;;;;;;11.40;99.90;;;;;;5072710;28;20344;-72
2022/06/10 04:17:59;;;;;;;;;;;11.50;99.90;;;;;;5073185;28;19959;-73
2022/06/10 04:20:28;;;;;;;;;;;11.50;99.90;;;;;;5073166;28;20308;-72
2022/06/10 04:22:55;;;;;;;;;;;11.50;99.90;;;;;;5073203;28;19925;-72
2022/06/10 04:25:22;;;;;;;;;;;11.50;99.90;;;;;;5072787;28;20375;-70
2022/06/10 04:27:49;;;;;;;;;;;11.50;99.90;;;;;;5073057;28;19994;-72
2022/06/10 04:30:20;;;;;;;;;;;11.50;99.90;;;;;;5072099;28;19931;-70
2022/06/10 04:32:47;;;;;;;;;;;11.60;99.90;;;;;;5073031;28;19924;-70
2022/06/10 04:35:13;;;;;;;;;;;11.70;99.90;;;;;;5072403;28;20384;-70
2022/06/10 04:37:40;;;;;;;;;;;11.80;99.90;;;;;;5072816;28;19994;-70
2022/06/10 04:40:08;;;;;;;;;;;11.90;99.90;;;;;;5072788;28;19924;-70
2022/06/10 04:42:34;;;;;;;;;;;12.00;99.90;;;;;;5072984;28;20338;-70
2022/06/10 04:45:01;;;;;;;;;;;12.00;99.90;;;;;;5072370;28;20358;-70
2022/06/10 04:47:29;;;;;;;;;;;12.10;99.90;;;;;;5072456;28;19998;-70
2022/06/10 04:49:59;;;;;;;;;;;12.20;99.90;;;;;;5072393;28;19961;-70
2022/06/10 04:52:27;;;;;;;;;;;12.20;99.90;;;;;;5072465;28;19924;-70
2022/06/10 04:54:54;;;;;;;;;;;12.30;99.90;;;;;;5072050;28;19924;-70
2022/06/10 04:57:20;;;;;;;;;;;12.20;99.90;;;;;;5072540;28;19974;-70
2022/06/10 04:59:48;;;;;;;;;;;12.40;99.90;;;;;;5072438;28;20347;-71
2022/06/10 05:02:15;;;;;;;;;;;12.50;99.90;;;;;;5072466;28;19931;-70
2022/06/10 05:04:43;;;;;;;;;;;12.50;99.90;;;;;;5072012;28;19994;-70
2022/06/10 05:07:10;;;;;;;;;;;12.50;99.90;;;;;;5072335;28;19924;-71
2022/06/10 05:09:36;;;;;;;;;;;12.50;99.90;;;;;;5071974;28;19970;-70
2022/06/10 05:12:04;;;;;;;;;;;12.60;99.90;;;;;;5072272;28;20323;-70
2022/06/10 05:14:30;;;;;;;;;;;12.60;99.90;;;;;;5072180;28;19924;-70
2022/06/10 05:16:57;;;;;;;;;;;12.70;99.90;;;;;;5071735;28;19924;-70
2022/06/10 05:19:24;;;;;;;;;;;12.70;99.90;;;;;;5072448;28;20023;-70
2022/06/10 05:21:53;;;;;;;;;;;12.80;99.90;;;;;;5071916;28;19986;-70
2022/06/10 05:24:20;;;;;;;;;;;12.80;99.90;;;;;;5071818;28;19931;-71
2022/06/10 05:26:47;;;;;;;;;;;12.90;99.90;;;;;;5071754;28;19929;-71
2022/06/10 05:29:14;;;;;;;;;;;13.00;99.90;;;;;;5071998;28;19924;-71
2022/06/10 05:31:40;;;;;;;;;;;13.10;99.90;;;;;;5071837;28;19929;-71
2022/06/10 05:36:53;;;;;;;;;;;13.30;99.90;;;;;;5071661;28;19998;-70
2022/06/10 05:39:20;;;;;;;;;;;13.20;99.90;;;;;;5071842;28;20347;-70
2022/06/10 05:44:31;;;;;;;;;;;13.40;99.90;;;;;;5075805;28;20025;-71
2022/06/10 05:46:57;;;;;;;;;;;13.40;99.90;;;;;;5075461;28;19929;-71
2022/06/10 05:49:24;;;;;;;;;;;13.50;99.90;;;;;;5075654;28;19924;-70
2022/06/10 05:51:53;;;;;;;;;;;13.60;99.90;;;;;;5075745;28;20339;-71
2022/06/10 05:54:20;;;;;;;;;;;13.60;99.90;;;;;;5075621;28;19935;-71
2022/06/10 05:56:47;;;;;;;;;;;13.70;99.90;;;;;;5075475;28;19929;-71
2022/06/10 05:59:14;;;;;;;;;;;13.70;99.90;;;;;;5075438;28;19930;-70
2022/06/10 06:01:41;;;;;;;;;;;13.70;99.90;;;;;;5075553;28;20032;-71
2022/06/10 06:04:07;;;;;;;;;;;13.80;99.90;;;;;;5075662;28;19990;-71
2022/06/10 06:06:34;;;;;;;;;;;13.80;99.90;;;;;;5075102;28;20381;-71
2022/06/10 06:09:03;;;;;;;;;;;13.90;99.90;;;;;;5075194;28;19978;-70
2022/06/10 06:11:29;;;;;;;;;;;13.80;99.90;;;;;;5075244;28;19928;-71
2022/06/10 06:13:57;;;;;;;;;;;14.00;99.90;;;;;;5075212;28;19979;-71
2022/06/10 06:16:24;;;;;;;;;;;14.20;99.90;;;;;;5075053;28;19928;-71
2022/06/10 06:18:52;;;;;;;;;;;14.20;99.90;;;;;;5074985;28;19928;-71
2022/06/10 06:21:19;;;;;;;;;;;14.40;99.90;;;;;;5075406;28;19986;-70
2022/06/10 06:23:46;;;;;;;;;;;14.50;99.90;;;;;;5075048;28;19956;-71
2022/06/10 06:26:15;;;;;;;;;;;14.60;99.90;;;;;;5074798;28;19971;-71
2022/06/10 06:28:42;;;;;;;;;;;14.70;99.90;;;;;;5074849;28;20023;-71
2022/06/10 06:31:09;;;;;;;;;;;15.00;99.90;;;;;;5074709;28;20339;-71
2022/06/10 06:33:36;;;;;;;;;;;15.00;99.90;;;;;;5075111;28;19978;-71
2022/06/10 06:36:04;;;;;;;;;;;15.00;99.90;;;;;;5074669;28;19971;-70
2022/06/10 06:38:31;;;;;;;;;;;15.00;99.90;;;;;;5074685;28;19932;-71
2022/06/10 06:40:58;;;;;;;;;;;15.30;99.90;;;;;;5074678;28;19925;-70
2022/06/10 06:43:26;;;;;;;;;;;15.50;99.90;;;;;;5074644;28;19928;-71
2022/06/10 06:45:53;;;;;;;;;;;15.50;99.90;;;;;;5074357;28;19936;-71
2022/06/10 06:48:20;;;;;;;;;;;15.70;99.90;;;;;;5074619;28;19998;-71
2022/06/10 06:50:48;;;;;;;;;;;15.90;99.90;;;;;;5074598;28;19925;-71
2022/06/10 06:53:15;;;;;;;;;;;15.90;99.90;;;;;;5074026;28;19932;-71
2022/06/10 06:55:42;;;;;;;;;;;15.90;99.90;;;;;;5074285;28;20339;-71
2022/06/10 06:58:11;;;;;;;;;;;16.10;99.90;;;;;;5074235;28;20458;-70
2022/06/10 07:00:39;;;;;;;;;;;16.30;99.90;;;;;;5074164;28;19933;-71
2022/06/10 07:03:06;;;;;;;;;;;16.20;99.90;;;;;;5074467;28;19925;-71
2022/06/10 07:05:35;;;;;;;;;;;16.40;99.90;;;;;;5073940;28;19924;-71
2022/06/10 07:08:02;;;;;;;;;;;16.60;99.90;;;;;;5074409;28;20262;-71
2022/06/10 07:10:28;;;;;;;;;;;16.80;99.90;;;;;;5073898;28;19924;-70
2022/06/10 07:12:55;;;;;;;;;;;16.90;99.90;;;;;;5073954;28;19979;-71
2022/06/10 07:15:23;;;;;;;;;;;17.00;99.90;;;;;;5073945;28;20400;-71
2022/06/10 07:17:51;;;;;;;;;;;16.90;99.90;;;;;;5073932;28;19928;-70
2022/06/10 07:20:20;;;;;;;;;;;17.00;99.90;;;;;;5073997;28;20011;-71
2022/06/10 07:22:47;;;;;;;;;;;17.10;99.90;;;;;;5073939;28;19924;-71
2022/06/10 07:25:14;;;;;;;;;;;17.20;99.90;;;;;;5073574;28;20439;-71
2022/06/10 07:27:41;;;;;;;;;;;17.50;99.90;;;;;;5074111;28;19924;-71
2022/06/10 07:30:10;;;;;;;;;;;17.50;99.90;;;;;;5073689;28;19979;-71
2022/06/10 07:32:37;;;;;;;;;;;17.50;99.90;;;;;;5073707;28;19978;-73
2022/06/10 07:35:06;;;;;;;;;;;17.30;99.90;;;;;;5073441;28;19929;-73
2022/06/10 07:37:33;;;;;;;;;;;17.50;99.90;;;;;;5073654;28;19986;-73
2022/06/10 07:39:59;;;;;;;;;;;17.60;99.90;;;;;;5073467;28;19929;-73
2022/06/10 07:42:25;;;;;;;;;;;18.00;99.90;;;;;;5073459;28;20409;-73
2022/06/10 07:44:54;;;;;;;;;;;18.10;99.90;;;;;;5072742;28;19924;-73
2022/06/10 07:47:21;;;;;;;;;;;18.00;99.90;;;;;;5073674;28;20277;-73
2022/06/10 07:49:48;;;;;;;;;;;18.10;99.90;;;;;;5073289;28;20300;-73
2022/06/10 07:52:16;;;;;;;;;;;18.40;99.90;;;;;;5073135;28;20095;-73
2022/06/10 07:54:43;;;;;;;;;;;18.50;99.90;;;;;;5073167;28;19928;-72
2022/06/10 07:57:11;;;;;;;;;;;18.50;99.90;;;;;;5073164;28;19928;-73
2022/06/10 07:59:40;;;;;;;;;;;18.60;99.90;;;;;;5073662;28;20628;-73
2022/06/10 08:02:06;;;;;;;;;;;18.70;99.90;;;;;;5073145;28;19932;-73
2022/06/10 08:04:33;;;;;;;;;;;19.10;99.90;;;;;;5072177;28;20404;-73
2022/06/10 08:07:00;;;;;;;;;;;19.40;99.90;;;;;;5072853;28;20427;-73
2022/06/10 08:09:28;;;;;;;;;;;19.70;99.90;;;;;;5072804;28;20427;-73
2022/06/10 08:11:55;;;;;;;;;;;19.70;99.90;;;;;;5072854;28;19947;-73
2022/06/10 08:14:22;;;;;;;;;;;19.80;99.90;;;;;;5072996;28;19928;-73
2022/06/10 08:16:49;;;;;;;;;;;20.30;99.90;;;;;;5072732;28;19924;-73
2022/06/10 08:19:15;;;;;;;;;;;20.40;99.90;;;;;;5072620;28;20334;-73
2022/06/10 08:24:26;;;;;;;;;;;20.20;99.90;;;;;;5072859;28;20002;-73
2022/06/10 08:26:55;;;;;;;;;;;21.10;99.90;;;;;;5072499;28;19929;-73
2022/06/10 08:29:21;;;;;;;;;;;21.00;99.90;;;;;;5072700;28;20019;-73
2022/06/10 08:31:48;;;;;;;;;;;21.20;99.90;;;;;;5072512;28;19924;-73
2022/06/10 08:34:15;;;;;;;;;;;21.40;99.90;;;;;;5072843;28;20351;-73
2022/06/10 08:36:42;;;;;;;;;;;21.80;99.90;;;;;;5072368;28;19925;-73
2022/06/10 08:39:09;;;;;;;;;;;22.00;99.90;;;;;;5072245;28;19974;-73
2022/06/10 08:41:42;;;;;;;;;;;22.40;99.90;;;;;;5072403;28;20273;-73
2022/06/10 08:44:14;;;;;;;;;;;22.40;99.90;;;;;;5072340;28;19951;-73
2022/06/10 08:46:51;;;;;;;;;;;23.00;99.90;;;;;;5072165;28;19928;-73
2022/06/10 08:49:26;;;;;;;;;;;23.90;99.30;;;;;;5072145;28;20474;-73
2022/06/10 08:51:56;;;;;;;;;;;24.20;98.30;;;;;;5072089;28;19929;-73
2022/06/10 08:54:26;;;;;;;;;;;24.60;97.40;;;;;;5072056;28;19929;-73
2022/06/10 08:56:56;;;;;;;;;;;24.80;96.00;;;;;;5071796;28;19925;-73
2022/06/10 08:59:27;;;;;;;;;;;24.80;96.80;;;;;;5071974;28;19924;-73
2022/06/10 09:02:00;;;;;;;;;;;25.40;96.00;;;;;;5071893;28;19924;-73
2022/06/10 09:04:32;;;;;;;;;;;24.70;96.40;;;;;;5071733;28;19954;-73
2022/06/10 09:07:02;;;;;;;;;;;23.60;97.30;;;;;;5071837;28;19929;-73
2022/06/10 09:09:32;;;;;;;;;;;23.10;98.60;;;;;;5071889;28;19924;-71
2022/06/10 09:12:02;;;;;;;;;;;23.60;98.00;;;;;;5072149;28;19924;-71
2022/06/10 09:14:31;;;;;;;;;;;22.30;98.30;;;;;;5072258;28;19946;-73
2022/06/10 09:17:00;;;;;;;;;;;23.70;97.40;;;;;;5071602;28;19929;-73
2022/06/10 09:19:31;;;;;;;;;;;24.90;95.60;;;;;;5071815;28;19928;-73
2022/06/10 09:22:01;;;;;;;;;;;25.00;95.20;;;;;;5072023;28;20016;-73
2022/06/10 09:24:29;;;;;;;;;;;25.90;94.50;;;;;;5071826;28;19978;-73
2022/06/10 09:27:01;;;;;;;;;;;24.70;95.40;;;;;;5071953;28;20304;-71
2022/06/10 09:29:28;;;;;;;;;;;24.80;95.80;;;;;;5071700;28;19977;-71
2022/06/10 09:32:03;;;;;;;;;;;26.50;94.20;;;;;;5071910;28;19976;-71
2022/06/10 09:34:36;;;;;;;;;;;28.20;92.40;;;;;;5071994;28;19925;-71
2022/06/10 09:37:09;;;;;;;;;;;27.30;92.20;;;;;;5071841;28;20054;-71
2022/06/10 09:42:31;;;;;;;;;;;27.10;91.70;;;;;;5071691;28;19928;-71
2022/06/10 09:45:01;;;;;;;;;;;28.90;91.10;;;;;;5071385;28;19925;-73
2022/06/10 09:47:34;;;;;;;;;;;27.40;92.50;;;;;;5071605;28;20358;-71
2022/06/10 09:50:07;;;;;;;;;;;27.40;91.60;;;;;;5072063;28;20404;-74
2022/06/10 09:52:39;;;;;;;;;;;25.70;92.80;;;;;;5071639;28;19924;-73
2022/06/10 09:55:25;;;;;;;;;;;25.40;92.60;;;;;;5071040;28;19929;-73
2022/06/10 09:58:00;;;;;;;;;;;26.50;92.50;;;;;;5071729;28;19928;-73
2022/06/10 10:00:31;;;;;;;;;;;28.00;91.20;;;;;;5072022;28;19967;-71
2022/06/10 10:03:05;;;;;;;;;;;28.80;90.70;;;;;;5071742;28;20023;-73
2022/06/10 10:05:40;;;;;;;;;;;29.40;88.20;;;;;;5071412;28;19978;-73
2022/06/10 10:08:16;;;;;;;;;;;30.00;87.50;;;;;;5071374;28;19970;-73
2022/06/10 10:10:46;;;;;;;;;;;29.80;87.80;;;;;;5071499;28;19947;-73
2022/06/10 10:13:22;;;;;;;;;;;28.30;90.00;;;;;;5071465;28;19970;-73
2022/06/10 10:15:52;;;;;;;;;;;28.80;89.00;;;;;;5071080;28;19925;-73
2022/06/10 10:18:36;;;;;;;;;;;27.10;90.70;;;;;;5071600;28;19931;-74
2022/06/10 10:21:09;;;;;;;;;;;26.50;92.00;;;;;;5071357;28;19929;-73
2022/06/10 10:23:38;;;;;;;;;;;25.90;92.10;;;;;;5071345;28;19975;-73
2022/06/10 10:26:06;;;;;;;;;;;26.00;92.00;;;;;;5071244;28;20007;-73
2022/06/10 10:28:35;;;;;;;;;;;25.90;91.20;;;;;;5073949;28;19962;-72
2022/06/10 10:31:08;;;;;;;;;;;26.80;91.90;;;;;;5074939;28;19924;-71
2022/06/10 10:33:36;;;;;;;;;;;28.40;89.50;;;;;;5074749;28;19925;-71
2022/06/10 10:36:06;;;;;;;;;;;27.00;91.50;;;;;;5074690;28;19994;-71
2022/06/10 10:38:35;;;;;;;;;;;28.00;90.70;;;;;;5074789;28;20277;-71
2022/06/10 10:41:12;;;;;;;;;;;29.30;88.20;;;;;;5074718;28;19936;-71
2022/06/10 10:43:39;;;;;;;;;;;28.00;89.40;;;;;;5074653;28;19947;-72
2022/06/10 10:46:07;;;;;;;;;;;27.90;90.20;;;;;;5074437;28;19925;-71
2022/06/10 10:48:37;;;;;;;;;;;27.30;90.40;;;;;;5074392;28;19924;-71
2022/06/10 10:51:06;;;;;;;;;;;28.40;89.70;;;;;;5074381;28;19928;-71
2022/06/10 10:53:35;;;;;;;;;;;28.50;87.50;;;;;;5074283;28;19925;-71
2022/06/10 10:56:03;;;;;;;;;;;29.10;85.90;;;;;;5074124;28;19925;-71
2022/06/10 10:58:32;;;;;;;;;;;30.60;84.90;;;;;;5074578;28;19957;-71
2022/06/10 11:01:01;;;;;;;;;;;31.10;83.80;;;;;;5074260;28;20385;-71
2022/06/10 11:03:29;;;;;;;;;;;29.60;84.40;;;;;;5074271;28;19924;-72
2022/06/10 11:05:58;;;;;;;;;;;28.90;87.50;;;;;;5074194;28;19940;-72
2022/06/10 11:08:28;;;;;;;;;;;29.00;85.20;;;;;;5074073;28;19925;-71
2022/06/10 11:11:03;;;;;;;;;;;29.80;84.50;;;;;;5074348;28;20460;-71
2022/06/10 11:13:36;;;;;;;;;;;30.70;83.60;;;;;;5074577;28;20254;-72
2022/06/10 11:16:34;;;;;;;;;;;30.80;82.70;;;;;;5073742;28;19925;-71
2022/06/10 11:19:05;;;;;;;;;;;29.00;84.20;;;;;;5012174;28;19926;-72
2022/06/10 11:21:46;;;;;;;;;;;28.00;86.90;;;;;;5062344;28;19959;-71
2022/06/10 11:24:16;;;;;;;;;;;29.40;85.30;;;;;;5074211;28;19928;-71
2022/06/10 11:26:48;;;;;;;;;;;30.80;82.00;;;;;;5073828;28;19948;-72
2022/06/10 11:29:15;;;;;;;;;;;29.00;83.90;;;;;;5073820;28;19978;-72
2022/06/10 11:31:45;;;;;;;;;;;29.70;81.70;;;;;;5073754;28;20451;-72
2022/06/10 11:34:16;;;;;;;;;;;30.70;82.30;;;;;;5073611;28;19925;-72
2022/06/10 11:36:47;;;;;;;;;;;31.10;80.90;;;;;;5073517;28;20438;-72
2022/06/10 11:39:16;;;;;;;;;;;29.90;82.00;;;;;;5073305;28;19924;-72
2022/06/10 11:41:57;;;;;;;;;;;29.00;83.70;;;;;;5073646;28;19924;-71
2022/06/10 11:44:26;;;;;;;;;;;28.30;85.30;;;;;;5073761;28;20253;-71
2022/06/10 11:46:55;;;;;;;;;;;27.30;86.70;;;;;;5073319;28;19972;-71
2022/06/10 11:49:25;;;;;;;;;;;27.40;86.90;;;;;;5073516;28;19925;-71
2022/06/10 11:51:55;;;;;;;;;;;27.60;86.60;;;;;;5073640;28;19931;-71
2022/06/10 11:54:26;;;;;;;;;;;28.60;84.40;;;;;;5073551;28;20053;-71
2022/06/10 11:59:45;;;;;;;;;;;30.10;81.90;;;;;;5073562;28;19928;-72
2022/06/10 12:02:15;;;;;;;;;;;31.50;79.80;;;;;;5073948;28;19928;-72
2022/06/10 12:04:45;;;;;;;;;;;31.40;78.10;;;;;;5073056;28;20311;-72
2022/06/10 12:07:16;;;;;;;;;;;31.90;78.00;;;;;;5073032;28;19974;-72
2022/06/10 12:09:44;;;;;;;;;;;32.40;76.90;;;;;;5072960;28;19925;-72
2022/06/10 12:12:14;;;;;;;;;;;31.10;79.10;;;;;;5072990;28;20459;-71
2022/06/10 12:14:42;;;;;;;;;;;31.50;78.70;;;;;;5072627;28;19928;-72
2022/06/10 12:17:15;;;;;;;;;;;32.80;76.30;;;;;;5072797;28;19960;-72
2022/06/10 12:19:43;;;;;;;;;;;33.20;75.40;;;;;;5072710;28;19928;-72
2022/06/10 12:22:11;;;;;;;;;;;31.20;75.50;;;;;;5072645;28;19925;-72
2022/06/10 12:24:40;;;;;;;;;;;30.70;78.00;;;;;;5072661;28;19925;-72
2022/06/10 12:27:12;;;;;;;;;;;30.90;77.10;;;;;;5072275;28;20012;-72
2022/06/10 12:29:41;;;;;;;;;;;33.10;73.80;;;;;;5073002;28;20288;-72
2022/06/10 12:32:13;;;;;;;;;;;32.80;73.20;;;;;;5072623;28;19929;-72
2022/06/10 12:34:49;;;;;;;;;;;33.30;73.60;;;;;;5072627;28;19925;-72
2022/06/10 12:37:23;;;;;;;;;;;33.90;71.80;;;;;;5071757;28;20502;-72
2022/06/10 12:39:53;;;;;;;;;;;34.40;70.20;;;;;;5072335;28;19975;-72
2022/06/10 12:42:22;;;;;;;;;;;32.80;71.50;;;;;;5072950;28;20412;-72
2022/06/10 12:44:50;;;;;;;;;;;33.40;72.30;;;;;;5072250;28;19924;-72
2022/06/10 12:47:20;;;;;;;;;;;33.80;70.50;;;;;;5072593;28;19978;-73
2022/06/10 12:49:47;;;;;;;;;;;33.80;70.50;;;;;;5072211;28;19924;-74
2022/06/10 12:52:20;;;;;;;;;;;31.90;73.10;;;;;;5072111;28;19924;-73
2022/06/10 12:54:49;;;;;;;;;;;33.00;72.90;;;;;;5072142;28;20399;-73
2022/06/10 12:57:34;;;;;;;;;;;32.20;71.90;;;;;;5072359;28;19924;-73
2022/06/10 13:00:31;;;;;;;;;;;30.80;74.50;;;;;;5072399;28;19925;-73
2022/06/10 13:03:17;;;;;;;;;;;31.20;75.80;;;;;;5010354;28;20109;-73
2022/06/10 13:05:45;;;;;;;;;;;31.20;74.20;;;;;;5065314;28;19978;-74
2022/06/10 13:11:09;;;;;;;;;;;29.10;78.10;;;;;;5071379;28;19928;-74
2022/06/10 13:13:38;;;;;;;;;;;31.20;76.30;;;;;;5072242;28;20313;-73
2022/06/10 13:16:23;;;;;;;;;;;31.50;73.70;;;;;;5071803;28;19970;-73
2022/06/10 13:18:57;;;;;;;;;;;32.10;74.20;;;;;;5072430;28;20373;-72
2022/06/10 13:21:28;;;;;;;;;;;32.10;73.40;;;;;;5071767;28;19925;-73
2022/06/10 13:24:03;;;;;;;;;;;32.00;72.60;;;;;;5071846;28;19972;-73
2022/06/10 13:26:31;;;;;;;;;;;33.60;72.00;;;;;;5071666;28;19929;-73
2022/06/10 13:29:05;;;;;;;;;;;34.10;69.40;;;;;;5071546;28;20444;-73
2022/06/10 13:31:31;;;;;;;;;;;32.40;71.50;;;;;;5072089;28;19925;-73
2022/06/10 13:34:02;;;;;;;;;;;33.00;71.30;;;;;;5071568;28;19925;-73
2022/06/10 13:36:31;;;;;;;;;;;33.30;71.60;;;;;;5071535;28;19968;-73
2022/06/10 13:45:28;;;;;;;;;;;30.00;76.70;;;;;;5065743;28;20132;-72
2022/06/10 13:48:15;;;;;;;;;;;29.40;78.00;;;;;;5068377;28;20215;-73
2022/06/10 13:53:37;;;;;;;;;;;29.60;76.50;;;;;;5064861;28;19929;-74
2022/06/10 13:56:05;;;;;;;;;;;29.40;76.30;;;;;;5068620;28;19956;-73
2022/06/10 13:58:35;;;;;;;;;;;30.90;73.80;;;;;;5068762;28;19971;-73
2022/06/10 14:01:05;;;;;;;;;;;31.10;73.90;;;;;;5068903;28;19929;-73
2022/06/10 14:03:38;;;;;;;;;;;29.00;75.70;;;;;;5072012;28;19978;-74
2022/06/10 14:06:14;;;;;;;;;;;27.60;79.00;;;;;;5073462;28;20023;-73
2022/06/10 14:08:45;;;;;;;;;;;28.40;79.20;;;;;;5075090;28;20015;-72
2022/06/10 14:11:13;;;;;;;;;;;28.00;78.70;;;;;;5075428;28;19971;-72
2022/06/10 14:13:48;;;;;;;;;;;27.90;78.20;;;;;;5075129;28;19982;-72
2022/06/10 14:16:16;;;;;;;;;;;29.00;77.60;;;;;;5075046;28;19925;-72
2022/06/10 14:18:44;;;;;;;;;;;29.20;77.00;;;;;;5075151;28;19924;-72
2022/06/10 14:21:13;;;;;;;;;;;29.30;78.20;;;;;;5075204;28;19979;-73
2022/06/10 14:23:55;;;;;;;;;;;29.90;75.90;;;;;;5075251;28;19931;-72
2022/06/10 14:26:24;;;;;;;;;;;29.60;74.80;;;;;;5075186;28;20389;-72
2022/06/10 14:28:51;;;;;;;;;;;28.90;75.80;;;;;;5074853;28;19924;-72
2022/06/10 14:31:19;;;;;;;;;;;28.80;76.80;;;;;;5075253;28;19924;-72
2022/06/10 14:33:47;;;;;;;;;;;28.10;77.40;;;;;;5074907;28;19924;-72
2022/06/10 14:36:17;;;;;;;;;;;28.10;79.40;;;;;;5074614;28;20015;-72
2022/06/10 14:38:45;;;;;;;;;;;28.10;78.60;;;;;;5074741;28;19935;-72
2022/06/10 14:41:21;;;;;;;;;;;28.30;78.70;;;;;;5074891;28;19933;-72
2022/06/10 14:43:58;;;;;;;;;;;28.60;79.10;;;;;;5075021;28;19925;-72
2022/06/10 14:46:26;;;;;;;;;;;28.50;79.10;;;;;;5074523;28;20358;-72
2022/06/10 14:48:54;;;;;;;;;;;27.90;78.00;;;;;;5074530;28;19952;-72
2022/06/10 14:51:24;;;;;;;;;;;26.50;80.20;;;;;;5075026;28;19932;-72
2022/06/10 14:53:53;;;;;;;;;;;26.20;81.30;;;;;;5074533;28;19925;-73
2022/06/10 14:56:23;;;;;;;;;;;27.10;80.00;;;;;;5074317;28;20388;-73
2022/06/10 14:58:50;;;;;;;;;;;27.20;78.60;;;;;;5074579;28;20036;-72
2022/06/10 15:01:21;;;;;;;;;;;27.60;77.60;;;;;;5074458;28;19971;-73
2022/06/10 15:03:48;;;;;;;;;;;27.50;76.90;;;;;;5074372;28;19924;-72